createdAt,value
2019-05-03T00:02:12.556Z,12.03
2019-05-03T00:04:45.695Z,11.99
2019-05-03T00:07:22.257Z,11.94
2019-05-03T00:09:53.260Z,11.94
2019-05-03T00:12:24.716Z,11.95
2019-05-03T00:14:57.790Z,11.92
2019-05-03T00:17:29.042Z,11.90
2019-05-03T00:20:02.207Z,11.91
2019-05-03T00:22:33.405Z,11.92
2019-05-03T00:25:08.400Z,11.99
2019-05-03T00:27:39.763Z,12.06
2019-05-03T00:30:11.987Z,12.16
2019-05-03T00:32:44.343Z,12.25
2019-05-03T00:35:22.468Z,12.35
2019-05-03T00:37:55.033Z,12.31
2019-05-03T00:40:28.020Z,12.17
2019-05-03T00:43:02.172Z,12.15
2019-05-03T00:45:33.389Z,12.21
2019-05-03T00:48:05.285Z,12.40
2019-05-03T00:50:38.021Z,12.41
2019-05-03T00:53:11.601Z,12.34
2019-05-03T00:55:42.896Z,12.35
2019-05-03T00:58:14.134Z,12.26
2019-05-03T01:00:46.079Z,12.21
2019-05-03T01:03:18.954Z,12.13
2019-05-03T01:05:50.451Z,12.16
2019-05-03T01:08:22.093Z,12.20
2019-05-03T01:10:53.770Z,12.13
2019-05-03T01:13:25.015Z,12.16
2019-05-03T01:15:59.133Z,12.08
2019-05-03T01:18:32.290Z,11.98
2019-05-03T01:21:03.538Z,11.88
2019-05-03T01:23:35.188Z,11.84
2019-05-03T01:26:08.315Z,11.83
2019-05-03T01:28:45.323Z,11.93
2019-05-03T01:31:17.709Z,11.92
2019-05-03T01:33:48.994Z,11.90
2019-05-03T01:36:22.602Z,11.87
2019-05-03T01:38:53.453Z,11.85
2019-05-03T01:41:25.011Z,11.80
2019-05-03T01:43:56.309Z,11.79
2019-05-03T01:46:27.640Z,11.75
2019-05-03T01:49:06.479Z,11.77
2019-05-03T01:51:39.408Z,11.74
2019-05-03T01:54:12.254Z,11.72
2019-05-03T01:56:56.018Z,11.70
2019-05-03T01:59:16.574Z,11.67
2019-05-03T02:01:51.686Z,11.66
2019-05-03T02:04:29.107Z,11.67
2019-05-03T02:07:02.204Z,11.68
2019-05-03T02:09:33.662Z,11.69
2019-05-03T02:12:05.254Z,11.66
2019-05-03T02:14:37.564Z,11.66
2019-05-03T02:17:08.895Z,11.69
2019-05-03T02:19:41.996Z,11.65
2019-05-03T02:22:13.169Z,11.65
2019-05-03T02:24:44.426Z,11.65
2019-05-03T02:27:15.731Z,11.69
2019-05-03T02:29:47.006Z,11.65
2019-05-03T02:32:18.986Z,11.65
2019-05-03T02:34:50.398Z,11.66
2019-05-03T02:37:22.495Z,11.62
2019-05-03T02:39:57.166Z,11.59
2019-05-03T02:42:28.467Z,11.56
2019-05-03T02:45:00.260Z,11.58
2019-05-03T02:47:39.169Z,11.57
2019-05-03T02:50:12.392Z,11.54
2019-05-03T02:52:45.819Z,11.58
2019-05-03T02:55:17.000Z,11.55
2019-05-03T02:57:48.294Z,11.44
2019-05-03T03:00:25.602Z,11.35
2019-05-03T03:02:57.015Z,11.23
2019-05-03T03:05:28.458Z,11.16
2019-05-03T03:07:59.704Z,11.08
2019-05-03T03:10:31.504Z,10.97
2019-05-03T03:13:05.891Z,10.86
2019-05-03T03:15:40.247Z,10.83
2019-05-03T03:18:12.310Z,10.73
2019-05-03T03:20:46.710Z,10.69
2019-05-03T03:23:20.301Z,10.63
2019-05-03T03:25:55.927Z,10.63
2019-05-03T03:28:28.455Z,10.62
2019-05-03T03:31:09.962Z,10.61
2019-05-03T03:33:41.171Z,10.60
2019-05-03T03:36:37.784Z,10.56
2019-05-03T03:38:46.061Z,10.54
2019-05-03T03:41:17.652Z,10.54
2019-05-03T03:43:51.959Z,10.54
2019-05-03T03:46:25.339Z,10.56
2019-05-03T03:48:57.707Z,10.60
2019-05-03T03:51:31.140Z,10.52
2019-05-03T03:54:06.049Z,10.56
2019-05-03T03:56:56.042Z,10.56
2019-05-03T03:59:15.732Z,10.53
2019-05-03T04:01:47.681Z,10.52
2019-05-03T04:04:28.162Z,10.52
2019-05-03T04:07:01.395Z,10.47
2019-05-03T04:09:36.080Z,10.49
2019-05-03T04:12:06.789Z,10.47
2019-05-03T04:14:46.944Z,10.42
2019-05-03T04:17:36.235Z,10.39
2019-05-03T04:20:09.215Z,10.35
2019-05-03T04:22:42.080Z,10.38
2019-05-03T04:25:15.470Z,10.39
2019-05-03T04:27:49.150Z,10.38
2019-05-03T04:30:20.658Z,10.38
2019-05-03T04:32:52.128Z,10.36
2019-05-03T04:35:26.238Z,10.38
2019-05-03T04:37:56.665Z,10.36
2019-05-03T04:40:27.925Z,10.35
2019-05-03T04:42:59.160Z,10.37
2019-05-03T04:45:30.603Z,10.40
2019-05-03T04:48:01.905Z,10.43
2019-05-03T04:50:36.547Z,10.45
2019-05-03T04:53:06.888Z,10.46
2019-05-03T04:55:39.130Z,10.44
2019-05-03T04:58:10.377Z,10.47
2019-05-03T05:00:41.629Z,10.38
2019-05-03T05:03:15.117Z,10.35
2019-05-03T05:05:46.174Z,10.32
2019-05-03T05:08:17.885Z,10.30
2019-05-03T05:10:55.815Z,10.28
2019-05-03T05:13:25.059Z,10.23
2019-05-03T05:15:57.095Z,10.21
2019-05-03T05:18:35.347Z,10.17
2019-05-03T05:21:10.682Z,10.21
2019-05-03T05:23:49.973Z,10.25
2019-05-03T05:26:24.814Z,10.22
2019-05-03T05:28:57.839Z,10.24
2019-05-03T05:31:29.133Z,10.30
2019-05-03T05:34:02.426Z,10.37
2019-05-03T05:36:34.762Z,10.43
2019-05-03T05:39:09.310Z,10.45
2019-05-03T05:41:40.768Z,10.54
2019-05-03T05:44:12.166Z,10.62
2019-05-03T05:46:48.202Z,10.62
2019-05-03T05:49:37.321Z,10.64
2019-05-03T05:52:08.949Z,10.71
2019-05-03T05:54:42.026Z,10.69
2019-05-03T05:57:25.470Z,10.79
2019-05-03T05:59:58.174Z,10.85
2019-05-03T06:02:29.523Z,10.90
2019-05-03T06:05:00.999Z,11.10
2019-05-03T06:07:44.218Z,11.12
2019-05-03T06:10:34.691Z,11.20
2019-05-03T06:13:10.762Z,11.26
2019-05-03T06:15:57.405Z,11.22
2019-05-03T06:18:39.340Z,11.22
2019-05-03T06:21:28.181Z,11.34
2019-05-03T06:24:17.778Z,11.46
2019-05-03T06:26:48.952Z,11.40
2019-05-03T06:29:20.254Z,11.21
2019-05-03T06:32:09.364Z,11.34
2019-05-03T06:34:41.914Z,11.54
2019-05-03T06:37:15.023Z,11.65
2019-05-03T06:39:46.383Z,11.71
2019-05-03T06:42:19.747Z,11.65
2019-05-03T06:44:50.891Z,11.45
2019-05-03T06:47:22.214Z,11.38
2019-05-03T06:49:55.237Z,11.42
2019-05-03T06:52:29.315Z,11.65
2019-05-03T06:55:00.247Z,11.89
2019-05-03T06:57:32.982Z,11.98
2019-05-03T07:00:18.009Z,12.12
2019-05-03T07:02:50.944Z,12.31
2019-05-03T07:05:22.023Z,12.31
2019-05-03T07:07:57.688Z,12.45
2019-05-03T07:10:30.683Z,12.64
2019-05-03T07:13:04.995Z,12.71
2019-05-03T07:15:36.763Z,12.72
2019-05-03T07:18:08.247Z,12.69
2019-05-03T07:20:58.964Z,12.77
2019-05-03T07:23:30.428Z,12.80
2019-05-03T07:26:05.217Z,12.93
2019-05-03T07:28:46.417Z,13.00
2019-05-03T07:31:09.521Z,13.17
2019-05-03T07:33:40.782Z,13.18
2019-05-03T07:36:12.486Z,13.26
2019-05-03T07:38:45.352Z,13.22
2019-05-03T07:41:17.231Z,13.23
2019-05-03T07:43:48.607Z,13.49
2019-05-03T07:46:19.894Z,13.49
2019-05-03T07:48:51.323Z,13.57
2019-05-03T07:51:24.683Z,13.77
2019-05-03T07:53:55.857Z,13.95
2019-05-03T07:56:31.878Z,14.20
2019-05-03T07:59:06.372Z,13.89
2019-05-03T08:01:45.617Z,13.76
2019-05-03T08:04:17.482Z,13.60
2019-05-03T08:06:50.026Z,13.60
2019-05-03T08:09:21.280Z,13.47
2019-05-03T08:11:54.650Z,13.33
2019-05-03T08:14:25.749Z,13.03
2019-05-03T08:17:00.373Z,13.14
2019-05-03T08:19:31.635Z,13.30
2019-05-03T08:22:04.750Z,13.16
2019-05-03T08:24:37.865Z,13.13
2019-05-03T08:27:09.351Z,13.09
2019-05-03T08:29:40.861Z,13.03
2019-05-03T08:32:30.101Z,12.96
2019-05-03T08:35:06.333Z,13.02
2019-05-03T08:37:48.187Z,12.98
2019-05-03T08:40:24.557Z,13.04
2019-05-03T08:42:56.964Z,13.21
2019-05-03T08:45:28.302Z,13.21
2019-05-03T08:47:59.710Z,13.38
2019-05-03T08:50:31.064Z,13.37
2019-05-03T08:53:04.908Z,13.52
2019-05-03T08:55:35.626Z,13.73
2019-05-03T08:58:08.506Z,13.85
2019-05-03T09:00:41.566Z,13.89
2019-05-03T09:03:14.396Z,14.11
2019-05-03T09:05:46.482Z,14.05
2019-05-03T09:08:18.019Z,14.00
2019-05-03T09:10:59.676Z,14.09
2019-05-03T09:13:49.126Z,14.21
2019-05-03T09:16:20.544Z,14.25
2019-05-03T09:18:52.065Z,14.16
2019-05-03T09:21:25.328Z,14.14
2019-05-03T09:23:57.194Z,14.28
2019-05-03T09:26:29.543Z,14.35
2019-05-03T09:29:01.089Z,14.69
2019-05-03T09:31:32.554Z,14.87
2019-05-03T09:34:08.076Z,15.41
2019-05-03T09:36:38.094Z,15.59
2019-05-03T09:39:09.656Z,15.73
2019-05-03T09:41:40.944Z,16.23
2019-05-03T09:44:14.974Z,16.58
2019-05-03T09:46:46.627Z,16.37
2019-05-03T09:49:17.923Z,16.09
2019-05-03T09:51:49.778Z,15.99
2019-05-03T09:54:22.925Z,16.17
2019-05-03T09:56:58.530Z,16.49
2019-05-03T09:59:32.080Z,16.61
2019-05-03T10:02:15.859Z,16.95
2019-05-03T10:04:46.496Z,17.21
2019-05-03T10:07:25.805Z,17.00
2019-05-03T10:09:57.685Z,16.82
2019-05-03T10:12:31.022Z,16.49
2019-05-03T10:15:02.793Z,15.89
2019-05-03T10:17:35.085Z,15.52
2019-05-03T10:20:09.999Z,15.27
2019-05-03T10:22:42.115Z,15.18
2019-05-03T10:25:13.805Z,15.22
2019-05-03T10:27:48.328Z,15.07
2019-05-03T10:30:22.661Z,14.80
2019-05-03T10:32:58.723Z,14.91
2019-05-03T10:35:29.969Z,14.86
2019-05-03T10:38:01.254Z,14.94
2019-05-03T10:40:32.627Z,15.03
2019-05-03T10:43:04.863Z,15.61
2019-05-03T10:45:38.395Z,16.28
2019-05-03T10:48:09.886Z,16.56
2019-05-03T10:50:41.323Z,16.47
2019-05-03T10:53:30.156Z,16.85
2019-05-03T10:56:23.425Z,17.16
2019-05-03T10:59:06.168Z,17.21
2019-05-03T11:01:57.763Z,16.93
2019-05-03T11:04:29.990Z,16.69
2019-05-03T11:07:01.389Z,16.40
2019-05-03T11:09:47.252Z,16.22
2019-05-03T11:12:05.899Z,16.55
2019-05-03T11:14:39.286Z,17.14
2019-05-03T11:17:10.653Z,17.26
2019-05-03T11:19:42.070Z,17.27
2019-05-03T11:22:15.017Z,17.15
2019-05-03T11:24:46.378Z,16.97
2019-05-03T11:27:19.263Z,16.85
2019-05-03T11:29:59.238Z,16.73
2019-05-03T11:32:35.261Z,16.67
2019-05-03T11:35:17.039Z,16.56
2019-05-03T11:37:52.836Z,16.15
2019-05-03T11:40:25.183Z,16.28
2019-05-03T11:42:59.426Z,16.27
2019-05-03T11:45:30.838Z,16.36
2019-05-03T11:48:02.285Z,16.36
2019-05-03T11:50:34.747Z,16.20
2019-05-03T11:53:08.261Z,16.03
2019-05-03T11:55:39.540Z,15.65
2019-05-03T11:58:19.138Z,15.63
2019-05-03T12:01:11.761Z,15.70
2019-05-03T12:03:45.030Z,15.78
2019-05-03T12:06:16.863Z,15.73
2019-05-03T12:08:48.380Z,15.63
2019-05-03T12:11:19.774Z,15.58
2019-05-03T12:14:03.866Z,15.46
2019-05-03T12:17:08.624Z,15.41
2019-05-03T12:19:15.681Z,15.19
2019-05-03T12:21:38.106Z,14.87
2019-05-03T12:24:10.268Z,14.77
2019-05-03T12:26:46.797Z,14.63
2019-05-03T12:29:16.520Z,14.57
2019-05-03T12:31:59.669Z,14.49
2019-05-03T12:34:34.994Z,14.35
2019-05-03T12:37:05.679Z,14.34
2019-05-03T12:39:37.656Z,14.31
2019-05-03T12:42:09.544Z,14.50
2019-05-03T12:44:40.923Z,14.78
2019-05-03T12:47:14.473Z,14.72
2019-05-03T12:49:45.320Z,14.76
2019-05-03T12:52:17.342Z,14.86
2019-05-03T12:54:48.900Z,14.93
2019-05-03T12:57:20.200Z,14.92
2019-05-03T13:00:05.493Z,14.99
2019-05-03T13:02:42.218Z,15.07
2019-05-03T13:05:15.389Z,15.06
2019-05-03T13:07:51.321Z,14.94
2019-05-03T13:10:26.559Z,14.78
2019-05-03T13:12:58.427Z,14.52
2019-05-03T13:15:29.902Z,14.45
2019-05-03T13:18:01.226Z,14.40
2019-05-03T13:20:32.642Z,14.37
2019-05-03T13:23:05.456Z,14.48
2019-05-03T13:25:37.122Z,14.58
2019-05-03T13:28:08.405Z,14.53
2019-05-03T13:30:39.695Z,14.56
2019-05-03T13:33:11.037Z,14.30
2019-05-03T13:35:44.455Z,13.91
2019-05-03T13:38:15.775Z,13.84
2019-05-03T13:40:47.905Z,13.60
2019-05-03T13:43:19.136Z,13.39
2019-05-03T13:45:50.521Z,13.33
2019-05-03T13:48:23.554Z,13.45
2019-05-03T13:50:55.219Z,13.37
2019-05-03T13:53:26.814Z,13.39
2019-05-03T13:55:58.463Z,13.50
2019-05-03T13:58:30.211Z,13.64
2019-05-03T14:01:01.716Z,13.56
2019-05-03T14:03:35.211Z,13.53
2019-05-03T14:06:10.585Z,13.60
2019-05-03T14:08:42.002Z,13.49
2019-05-03T14:11:15.541Z,13.48
2019-05-03T14:13:47.506Z,13.52
2019-05-03T14:16:18.738Z,13.65
2019-05-03T14:18:51.780Z,13.77
2019-05-03T14:21:24.663Z,13.91
2019-05-03T14:24:12.879Z,14.02
2019-05-03T14:26:44.877Z,14.10
2019-05-03T14:29:16.357Z,14.21
2019-05-03T14:31:47.785Z,14.28
2019-05-03T14:34:19.219Z,14.38
2019-05-03T14:36:55.454Z,14.36
2019-05-03T14:42:39.570Z,14.39
2019-05-03T14:45:10.940Z,14.34
2019-05-03T14:47:42.435Z,14.42
2019-05-03T14:50:15.035Z,14.48
2019-05-03T14:52:46.494Z,14.54
2019-05-03T14:55:19.512Z,14.59
2019-05-03T14:57:52.511Z,14.66
2019-05-03T15:00:45.167Z,14.68
2019-05-03T15:03:18.249Z,14.76
2019-05-03T15:05:49.495Z,14.74
2019-05-03T15:08:20.816Z,14.70
2019-05-03T15:10:52.117Z,14.57
2019-05-03T15:13:25.138Z,14.49
2019-05-03T15:15:57.985Z,14.46
2019-05-03T15:18:29.491Z,14.41
2019-05-03T15:21:00.939Z,14.23
2019-05-03T15:23:34.353Z,13.64
2019-05-03T15:26:05.497Z,13.62
2019-05-03T15:28:36.900Z,13.74
2019-05-03T15:31:08.218Z,13.73
2019-05-03T15:33:39.543Z,13.69
2019-05-03T15:36:11.085Z,13.66
2019-05-03T15:38:44.531Z,13.68
2019-05-03T15:41:22.856Z,13.61
2019-05-03T15:43:59.477Z,13.69
2019-05-03T15:46:37.161Z,13.69
2019-05-03T15:49:08.555Z,13.66
2019-05-03T15:51:40.250Z,13.67
2019-05-03T15:54:11.649Z,13.67
2019-05-03T15:56:44.788Z,13.71
2019-05-03T15:59:20.971Z,13.68
2019-05-03T16:01:52.567Z,13.75
2019-05-03T16:04:25.098Z,13.77
2019-05-03T16:06:56.614Z,13.75
2019-05-03T16:09:27.976Z,13.74
2019-05-03T16:11:59.356Z,13.86
2019-05-03T16:14:31.628Z,13.93
2019-05-03T16:17:04.470Z,14.00
2019-05-03T16:19:35.981Z,14.06
2019-05-03T16:22:07.654Z,14.01
2019-05-03T16:24:39.166Z,13.94
2019-05-03T16:27:19.104Z,13.98
2019-05-03T16:29:50.663Z,14.47
2019-05-03T16:32:22.029Z,14.74
2019-05-03T16:34:55.002Z,14.72
2019-05-03T16:37:27.827Z,14.68
2019-05-03T16:39:59.330Z,14.50
2019-05-03T16:42:31.015Z,14.50
2019-05-03T16:45:02.739Z,14.41
2019-05-03T16:47:35.454Z,14.40
2019-05-03T16:50:08.038Z,14.25
2019-05-03T16:52:39.532Z,14.16
2019-05-03T16:55:11.301Z,14.09
2019-05-03T16:57:44.323Z,14.12
2019-05-03T17:00:17.931Z,14.12
2019-05-03T17:02:49.467Z,14.04
2019-05-03T17:05:25.196Z,14.07
2019-05-03T17:08:14.759Z,14.07
2019-05-03T17:10:48.033Z,14.01
2019-05-03T17:13:19.393Z,14.06
2019-05-03T17:15:50.896Z,14.00
2019-05-03T17:18:24.511Z,14.05
2019-05-03T17:20:58.463Z,14.12
2019-05-03T17:23:30.252Z,14.20
2019-05-03T17:26:01.687Z,14.30
2019-05-03T17:28:35.176Z,14.46
2019-05-03T17:31:06.479Z,14.66
2019-05-03T17:33:37.892Z,14.88
2019-05-03T17:36:09.508Z,15.04
2019-05-03T17:38:41.005Z,15.05
2019-05-03T17:41:26.314Z,15.01
2019-05-03T17:43:59.242Z,15.03
2019-05-03T17:46:30.610Z,15.09
2019-05-03T17:49:05.256Z,15.11
2019-05-03T17:51:38.272Z,14.91
2019-05-03T17:54:25.217Z,14.79
2019-05-03T17:57:01.403Z,14.64
2019-05-03T17:59:37.610Z,14.40
2019-05-03T18:02:30.979Z,14.27
2019-05-03T18:05:21.898Z,14.26
2019-05-03T18:07:54.558Z,14.19
2019-05-03T18:10:27.814Z,14.09
2019-05-03T18:12:59.653Z,13.98
2019-05-03T18:15:31.228Z,13.99
2019-05-03T18:18:02.660Z,13.98
2019-05-03T18:20:34.607Z,13.97
2019-05-03T18:23:06.185Z,14.06
2019-05-03T18:25:38.559Z,14.09
2019-05-03T18:28:10.438Z,13.84
2019-05-03T18:30:41.682Z,13.70
2019-05-03T18:33:15.253Z,13.75
2019-05-03T18:35:46.533Z,13.73
2019-05-03T18:38:17.970Z,13.64
2019-05-03T18:40:49.373Z,13.62
2019-05-03T18:43:34.969Z,13.47
2019-05-03T18:46:24.030Z,13.37
2019-05-03T18:48:55.433Z,13.29
2019-05-03T18:51:26.880Z,13.16
2019-05-03T18:53:58.281Z,13.20
2019-05-03T18:56:29.745Z,13.24
2019-05-03T18:59:05.105Z,13.16
2019-05-03T19:01:36.794Z,13.11
2019-05-03T19:04:15.602Z,13.17
2019-05-03T19:06:47.008Z,13.12
2019-05-03T19:09:25.258Z,13.04
2019-05-03T19:12:10.474Z,12.92
2019-05-03T19:14:41.929Z,12.76
2019-05-03T19:17:18.847Z,12.68
2019-05-03T19:19:55.160Z,12.57
2019-05-03T19:22:26.912Z,12.50
2019-05-03T19:24:59.468Z,12.42
2019-05-03T19:27:31.720Z,12.34
2019-05-03T19:30:04.663Z,12.27
2019-05-03T19:32:36.694Z,12.23
2019-05-03T19:35:09.821Z,12.24
2019-05-03T19:37:41.355Z,12.22
2019-05-03T19:40:13.135Z,12.18
2019-05-03T19:42:44.779Z,12.11
2019-05-03T19:45:17.428Z,12.06
2019-05-03T19:47:48.813Z,11.99
2019-05-03T19:50:20.310Z,11.94
2019-05-03T19:52:57.316Z,11.92
2019-05-03T19:55:28.724Z,11.85
2019-05-03T19:58:00.865Z,11.77
2019-05-03T20:00:40.806Z,11.69
2019-05-03T20:03:30.293Z,11.63
2019-05-03T20:06:04.919Z,11.61
2019-05-03T20:08:40.852Z,11.54
2019-05-03T20:11:18.247Z,11.52
2019-05-03T20:13:49.616Z,11.50
2019-05-03T20:16:21.039Z,11.48
2019-05-03T20:18:52.627Z,11.50
2019-05-03T20:21:25.304Z,11.50
2019-05-03T20:23:56.829Z,11.48
2019-05-03T20:26:28.449Z,11.50
2019-05-03T20:29:11.655Z,11.46
2019-05-03T20:31:44.680Z,11.47
2019-05-03T20:34:16.776Z,11.45
2019-05-03T20:36:48.103Z,11.43
2019-05-03T20:39:22.279Z,11.38
2019-05-03T20:41:55.026Z,11.38
2019-05-03T20:44:28.295Z,11.38
2019-05-03T20:47:17.278Z,11.37
2019-05-03T20:49:50.196Z,11.35
2019-05-03T20:52:21.593Z,11.33
2019-05-03T20:54:52.995Z,11.33
2019-05-03T20:57:25.370Z,11.29
2019-05-03T20:59:56.731Z,11.26
2019-05-03T21:02:28.054Z,11.19
2019-05-03T21:05:00.192Z,11.08
2019-05-03T21:07:31.486Z,11.16
2019-05-03T21:10:07.395Z,11.17
2019-05-03T21:12:39.835Z,11.18
2019-05-03T21:15:29.399Z,11.14
2019-05-03T21:18:15.192Z,11.17
2019-05-03T21:20:55.527Z,11.14
2019-05-03T21:23:28.557Z,11.10
2019-05-03T21:26:13.347Z,11.03
2019-05-03T21:28:44.959Z,11.09
2019-05-03T21:31:16.357Z,11.20
2019-05-03T21:33:47.784Z,11.24
2019-05-03T21:36:20.741Z,11.21
2019-05-03T21:38:52.098Z,11.22
2019-05-03T21:41:24.640Z,11.15
2019-05-03T21:43:58.786Z,11.14
2019-05-03T21:46:41.586Z,11.06
2019-05-03T21:49:25.405Z,11.05
2019-05-03T21:51:59.827Z,11.00
2019-05-03T21:54:31.213Z,10.98
2019-05-03T21:57:02.883Z,10.89
2019-05-03T21:59:35.449Z,10.84
2019-05-03T22:02:07.177Z,10.77
2019-05-03T22:04:47.314Z,10.65
2019-05-03T22:07:22.535Z,10.58
2019-05-03T22:09:54.491Z,10.56
2019-05-03T22:12:25.971Z,10.49
2019-05-03T22:15:00.095Z,10.45
2019-05-03T22:17:49.555Z,10.43
2019-05-03T22:20:38.566Z,10.44
2019-05-03T22:23:27.803Z,10.53
2019-05-03T22:26:00.759Z,10.54
2019-05-03T22:28:32.506Z,10.41
2019-05-03T22:31:06.620Z,10.36
2019-05-03T22:33:37.267Z,10.38
2019-05-03T22:36:09.159Z,10.35
2019-05-03T22:38:40.813Z,10.34
2019-05-03T22:41:12.152Z,10.31
2019-05-03T22:43:45.543Z,10.30
2019-05-03T22:46:16.550Z,10.30
2019-05-03T22:48:48.368Z,10.29
2019-05-03T22:51:19.740Z,10.39
2019-05-03T22:53:50.993Z,10.41
2019-05-03T22:56:22.352Z,10.39
2019-05-03T22:58:54.815Z,10.42
2019-05-03T23:01:26.334Z,10.55
2019-05-03T23:03:57.657Z,10.55
2019-05-03T23:06:29.059Z,10.67
2019-05-03T23:09:02.442Z,10.70
2019-05-03T23:11:35.561Z,10.67
2019-05-03T23:14:07.012Z,10.64
2019-05-03T23:16:38.447Z,10.56
2019-05-03T23:19:09.963Z,10.67
2019-05-03T23:21:54.514Z,10.74
2019-05-03T23:24:25.864Z,10.74
2019-05-03T23:26:57.201Z,10.63
2019-05-03T23:29:28.597Z,10.52
2019-05-03T23:32:01.440Z,10.59
2019-05-03T23:34:35.088Z,10.50
2019-05-03T23:37:10.964Z,10.41
2019-05-03T23:39:44.296Z,10.48
2019-05-03T23:42:17.048Z,10.42
2019-05-03T23:44:48.516Z,10.35
2019-05-03T23:47:25.421Z,10.35
2019-05-03T23:49:56.775Z,10.42
2019-05-03T23:52:28.426Z,10.54
2019-05-03T23:55:05.717Z,10.65
2019-05-03T23:57:37.037Z,10.56
